sensor_id;sensor_type;location;lat;lon;timestamp;pressure;altitude;pressure_sealevel;temperature;humidity
75036;BME280;64247;51.540;5.854;2023-08-12T00:01:26;101635.91;;;24.23;74.87
75036;BME280;64247;51.540;5.854;2023-08-12T00:03:27;101640.66;;;24.23;74.73
75036;BME280;64247;51.540;5.854;2023-08-12T00:05:28;101636.69;;;24.24;74.88
75036;BME280;64247;51.540;5.854;2023-08-12T00:07:30;101629.56;;;24.23;75.15
75036;BME280;64247;51.540;5.854;2023-08-12T00:09:31;101623.25;;;24.22;74.86
75036;BME280;64247;51.540;5.854;2023-08-12T00:11:32;101626.78;;;24.23;75.13
75036;BME280;64247;51.540;5.854;2023-08-12T00:13:33;101628.78;;;24.22;74.78
75036;BME280;64247;51.540;5.854;2023-08-12T00:15:34;101628.78;;;24.22;75.09
75036;BME280;64247;51.540;5.854;2023-08-12T00:17:35;101624.00;;;24.23;75.14
75036;BME280;64247;51.540;5.854;2023-08-12T00:19:37;101618.47;;;24.23;74.67
75036;BME280;64247;51.540;5.854;2023-08-12T00:21:38;101622.03;;;24.23;74.86
75036;BME280;64247;51.540;5.854;2023-08-12T00:23:40;101622.03;;;24.23;74.94
75036;BME280;64247;51.540;5.854;2023-08-12T00:25:41;101626.78;;;24.23;74.94
75036;BME280;64247;51.540;5.854;2023-08-12T00:27:42;101626.78;;;24.23;74.81
75036;BME280;64247;51.540;5.854;2023-08-12T00:29:43;101624.44;;;24.21;75.26
75036;BME280;64247;51.540;5.854;2023-08-12T00:31:44;101618.47;;;24.23;74.93
75036;BME280;64247;51.540;5.854;2023-08-12T00:33:44;101623.25;;;24.22;74.79
75036;BME280;64247;51.540;5.854;2023-08-12T00:35:46;101616.50;;;24.23;74.95
75036;BME280;64247;51.540;5.854;2023-08-12T00:37:47;101618.47;;;24.23;75.26
75036;BME280;64247;51.540;5.854;2023-08-12T00:39:48;101619.66;;;24.22;74.86
75036;BME280;64247;51.540;5.854;2023-08-12T00:41:49;101620.47;;;24.22;75.02
75036;BME280;64247;51.540;5.854;2023-08-12T00:43:50;101617.69;;;24.22;75.41
75036;BME280;64247;51.540;5.854;2023-08-12T00:45:51;101612.13;;;24.22;75.30
75036;BME280;64247;51.540;5.854;2023-08-12T00:47:53;101608.56;;;24.22;75.31
75036;BME280;64247;51.540;5.854;2023-08-12T00:49:54;101602.63;;;24.23;75.38
75036;BME280;64247;51.540;5.854;2023-08-12T00:51:57;101595.50;;;24.22;74.96
75036;BME280;64247;51.540;5.854;2023-08-12T00:53:59;101601.03;;;24.22;75.28
75036;BME280;64247;51.540;5.854;2023-08-12T00:56:03;101588.38;;;24.21;75.33
75036;BME280;64247;51.540;5.854;2023-08-12T00:58:05;101591.16;;;24.21;75.29
75036;BME280;64247;51.540;5.854;2023-08-12T01:00:06;101585.59;;;24.21;75.24
75036;BME280;64247;51.540;5.854;2023-08-12T01:02:08;101591.91;;;24.22;75.60
75036;BME280;64247;51.540;5.854;2023-08-12T01:04:10;101586.38;;;24.22;75.05
75036;BME280;64247;51.540;5.854;2023-08-12T01:06:11;101586.38;;;24.22;75.32
75036;BME280;64247;51.540;5.854;2023-08-12T01:08:13;101586.38;;;24.22;75.50
75036;BME280;64247;51.540;5.854;2023-08-12T01:10:14;101577.28;;;24.21;75.58
75036;BME280;64247;51.540;5.854;2023-08-12T01:12:26;101581.63;;;24.22;75.19
75036;BME280;64247;51.540;5.854;2023-08-12T01:17:15;101574.50;;;24.21;75.32
75036;BME280;64247;51.540;5.854;2023-08-12T01:19:35;101566.94;;;24.22;75.53
75036;BME280;64247;51.540;5.854;2023-08-12T01:21:41;101577.28;;;24.21;75.47
75036;BME280;64247;51.540;5.854;2023-08-12T01:23:44;101578.06;;;24.22;75.34
75036;BME280;64247;51.540;5.854;2023-08-12T01:25:45;101577.28;;;24.21;75.41
75036;BME280;64247;51.540;5.854;2023-08-12T01:27:46;101569.72;;;24.22;75.50
75036;BME280;64247;51.540;5.854;2023-08-12T01:29:51;101563.41;;;24.21;75.39
75036;BME280;64247;51.540;5.854;2023-08-12T01:32:01;101565.41;;;24.21;75.26
75036;BME280;64247;51.540;5.854;2023-08-12T01:34:24;101559.06;;;24.20;75.58
75036;BME280;64247;51.540;5.854;2023-08-12T01:36:41;101549.53;;;24.21;75.35
75036;BME280;64247;51.540;5.854;2023-08-12T01:38:49;101546.75;;;24.21;75.63
75036;BME280;64247;51.540;5.854;2023-08-12T01:40:52;101545.19;;;24.20;75.49
75036;BME280;64247;51.540;5.854;2023-08-12T01:42:54;101540.44;;;24.21;75.63
75036;BME280;64247;51.540;5.854;2023-08-12T01:44:55;101540.44;;;24.21;75.33
75036;BME280;64247;51.540;5.854;2023-08-12T01:46:57;101536.09;;;24.20;75.54
75036;BME280;64247;51.540;5.854;2023-08-12T01:48:57;101533.31;;;24.20;75.70
75036;BME280;64247;51.540;5.854;2023-08-12T01:50:58;101530.56;;;24.20;75.35
75036;BME280;64247;51.540;5.854;2023-08-12T01:53:00;101541.66;;;24.20;75.27
75036;BME280;64247;51.540;5.854;2023-08-12T01:55:04;101527.78;;;24.20;75.28
75036;BME280;64247;51.540;5.854;2023-08-12T01:57:05;101527.78;;;24.20;75.25
75036;BME280;64247;51.540;5.854;2023-08-12T01:59:07;101526.56;;;24.21;75.56
75036;BME280;64247;51.540;5.854;2023-08-12T02:01:08;101526.97;;;24.19;75.26
75036;BME280;64247;51.540;5.854;2023-08-12T02:03:09;101516.69;;;24.20;75.79
75036;BME280;64247;51.540;5.854;2023-08-12T02:05:10;101526.97;;;24.19;75.77
75036;BME280;64247;51.540;5.854;2023-08-12T02:07:11;101527.78;;;24.20;75.19
75036;BME280;64247;51.540;5.854;2023-08-12T02:09:12;101526.97;;;24.19;75.36
75036;BME280;64247;51.540;5.854;2023-08-12T02:11:13;101513.09;;;24.19;75.79
75036;BME280;64247;51.540;5.854;2023-08-12T02:13:13;101521.44;;;24.19;75.39
75036;BME280;64247;51.540;5.854;2023-08-12T02:15:14;101516.69;;;24.20;75.64
75036;BME280;64247;51.540;5.854;2023-08-12T02:17:15;101509.56;;;24.18;75.71
75036;BME280;64247;51.540;5.854;2023-08-12T02:19:16;101518.66;;;24.19;75.77
75036;BME280;64247;51.540;5.854;2023-08-12T02:21:17;101520.22;;;24.20;75.55
75036;BME280;64247;51.540;5.854;2023-08-12T02:23:18;101510.34;;;24.19;75.58
75036;BME280;64247;51.540;5.854;2023-08-12T02:25:19;101518.66;;;24.19;75.92
75036;BME280;64247;51.540;5.854;2023-08-12T02:27:20;101516.69;;;24.20;75.57
75036;BME280;64247;51.540;5.854;2023-08-12T02:29:21;101513.09;;;24.19;75.71
75036;BME280;64247;51.540;5.854;2023-08-12T02:31:22;101515.09;;;24.18;75.72
75036;BME280;64247;51.540;5.854;2023-08-12T02:33:22;101508.75;;;24.18;76.10
75036;BME280;64247;51.540;5.854;2023-08-12T02:35:23;101517.88;;;24.18;75.99
75036;BME280;64247;51.540;5.854;2023-08-12T02:37:24;101509.56;;;24.18;75.58
75036;BME280;64247;51.540;5.854;2023-08-12T02:39:25;101499.66;;;24.17;75.64
75036;BME280;64247;51.540;5.854;2023-08-12T02:41:26;101502.81;;;24.20;75.55
75036;BME280;64247;51.540;5.854;2023-08-12T02:43:27;101504.00;;;24.18;75.57
75036;BME280;64247;51.540;5.854;2023-08-12T02:45:28;101496.47;;;24.19;75.72
75036;BME280;64247;51.540;5.854;2023-08-12T02:47:29;101492.13;;;24.18;75.92
75036;BME280;64247;51.540;5.854;2023-08-12T02:49:30;101494.88;;;24.18;75.89
75036;BME280;64247;51.540;5.854;2023-08-12T02:51:31;101490.13;;;24.18;75.67
75036;BME280;64247;51.540;5.854;2023-08-12T02:53:32;101491.34;;;24.17;75.94
75036;BME280;64247;51.540;5.854;2023-08-12T02:55:33;101483.03;;;24.17;76.04
75036;BME280;64247;51.540;5.854;2023-08-12T02:57:34;101485.78;;;24.17;75.68
75036;BME280;64247;51.540;5.854;2023-08-12T02:59:35;101479.47;;;24.17;75.81
75036;BME280;64247;51.540;5.854;2023-08-12T03:01:36;101477.47;;;24.17;75.58
75036;BME280;64247;51.540;5.854;2023-08-12T03:03:37;101472.69;;;24.18;75.92
75036;BME280;64247;51.540;5.854;2023-08-12T03:05:38;101474.69;;;24.17;75.77
75036;BME280;64247;51.540;5.854;2023-08-12T03:07:40;101471.16;;;24.17;75.96
75036;BME280;64247;51.540;5.854;2023-08-12T03:09:41;101469.16;;;24.17;75.63
75036;BME280;64247;51.540;5.854;2023-08-12T03:11:43;101467.94;;;24.18;75.89
75036;BME280;64247;51.540;5.854;2023-08-12T03:13:45;101471.16;;;24.17;75.63
75036;BME280;64247;51.540;5.854;2023-08-12T03:15:46;101471.94;;;24.17;76.14
75036;BME280;64247;51.540;5.854;2023-08-12T03:17:47;101472.69;;;24.18;75.99
75036;BME280;64247;51.540;5.854;2023-08-12T03:19:48;101463.59;;;24.17;75.63
75036;BME280;64247;51.540;5.854;2023-08-12T03:21:49;101456.06;;;24.18;76.01
75036;BME280;64247;51.540;5.854;2023-08-12T03:23:51;101455.28;;;24.17;75.73
75036;BME280;64247;51.540;5.854;2023-08-12T03:25:52;101451.75;;;24.17;76.14
75036;BME280;64247;51.540;5.854;2023-08-12T03:27:54;101451.75;;;24.17;75.94
75036;BME280;64247;51.540;5.854;2023-08-12T03:29:55;101446.97;;;24.17;76.10
75036;BME280;64247;51.540;5.854;2023-08-12T03:31:57;101450.94;;;24.16;76.05
75036;BME280;64247;51.540;5.854;2023-08-12T03:34:00;101438.63;;;24.17;76.11
75036;BME280;64247;51.540;5.854;2023-08-12T03:36:04;101438.63;;;24.17;75.83
75036;BME280;64247;51.540;5.854;2023-08-12T03:38:05;101428.75;;;24.16;75.90
75036;BME280;64247;51.540;5.854;2023-08-12T03:40:07;101434.28;;;24.16;76.03
75036;BME280;64247;51.540;5.854;2023-08-12T03:42:10;101427.16;;;24.15;75.67
75036;BME280;64247;51.540;5.854;2023-08-12T03:44:11;101424.00;;;24.17;76.02
75036;BME280;64247;51.540;5.854;2023-08-12T03:46:12;101423.63;;;24.15;75.99
75036;BME280;64247;51.540;5.854;2023-08-12T03:48:13;101424.41;;;24.15;75.94
75036;BME280;64247;51.540;5.854;2023-08-12T03:50:15;101420.84;;;24.15;76.06
75036;BME280;64247;51.540;5.854;2023-08-12T03:52:16;101424.41;;;24.15;76.26
75036;BME280;64247;51.540;5.854;2023-08-12T03:54:18;101427.97;;;24.16;76.05
75036;BME280;64247;51.540;5.854;2023-08-12T03:56:19;101431.94;;;24.15;75.96
75036;BME280;64247;51.540;5.854;2023-08-12T03:58:20;101429.19;;;24.15;76.12
75036;BME280;64247;51.540;5.854;2023-08-12T04:00:21;101418.09;;;24.15;75.89
75036;BME280;64247;51.540;5.854;2023-08-12T04:02:22;101416.88;;;24.16;75.92
75036;BME280;64247;51.540;5.854;2023-08-12T04:04:23;101415.31;;;24.15;76.15
75036;BME280;64247;51.540;5.854;2023-08-12T04:06:24;101416.88;;;24.16;76.17
75036;BME280;64247;51.540;5.854;2023-08-12T04:08:25;101413.31;;;24.15;76.19
75036;BME280;64247;51.540;5.854;2023-08-12T04:10:26;101413.31;;;24.15;76.26
75036;BME280;64247;51.540;5.854;2023-08-12T04:12:27;101412.53;;;24.15;75.82
75036;BME280;64247;51.540;5.854;2023-08-12T04:14:28;101407.00;;;24.15;76.04
75036;BME280;64247;51.540;5.854;2023-08-12T04:16:31;101408.19;;;24.14;75.78
75036;BME280;64247;51.540;5.854;2023-08-12T04:18:32;101414.50;;;24.14;76.27
75036;BME280;64247;51.540;5.854;2023-08-12T04:20:34;101420.06;;;24.14;76.36
75036;BME280;64247;51.540;5.854;2023-08-12T04:22:35;101406.19;;;24.14;75.91
75036;BME280;64247;51.540;5.854;2023-08-12T04:24:36;101417.28;;;24.14;76.19
75036;BME280;64247;51.540;5.854;2023-08-12T04:26:37;101407.00;;;24.15;76.31
75036;BME280;64247;51.540;5.854;2023-08-12T04:28:38;101403.41;;;24.14;76.24
75036;BME280;64247;51.540;5.854;2023-08-12T04:30:46;101410.97;;;24.14;76.40
75036;BME280;64247;51.540;5.854;2023-08-12T04:32:50;101410.53;;;24.15;76.25
75036;BME280;64247;51.540;5.854;2023-08-12T04:34:51;101410.53;;;24.15;76.20
75036;BME280;64247;51.540;5.854;2023-08-12T04:36:52;101399.44;;;24.15;76.26
75036;BME280;64247;51.540;5.854;2023-08-12T04:38:53;101396.66;;;24.15;75.96
75036;BME280;64247;51.540;5.854;2023-08-12T04:40:54;101393.13;;;24.15;76.08
75036;BME280;64247;51.540;5.854;2023-08-12T04:42:55;101393.88;;;24.15;76.03
75036;BME280;64247;51.540;5.854;2023-08-12T04:44:57;101387.13;;;24.16;76.41
75036;BME280;64247;51.540;5.854;2023-08-12T04:46:58;101378.06;;;24.16;75.88
75036;BME280;64247;51.540;5.854;2023-08-12T04:48:59;101372.91;;;24.14;75.84
75036;BME280;64247;51.540;5.854;2023-08-12T04:51:00;101374.47;;;24.15;76.20
75036;BME280;64247;51.540;5.854;2023-08-12T04:53:03;101372.50;;;24.16;76.38
75036;BME280;64247;51.540;5.854;2023-08-12T04:55:04;101382.78;;;24.15;75.88
75036;BME280;64247;51.540;5.854;2023-08-12T04:57:06;101382.78;;;24.15;75.94
75036;BME280;64247;51.540;5.854;2023-08-12T04:59:06;101384.78;;;24.15;76.44
75036;BME280;64247;51.540;5.854;2023-08-12T05:01:09;101385.56;;;24.15;76.08
75036;BME280;64247;51.540;5.854;2023-08-12T05:03:11;101387.56;;;24.15;76.12
75036;BME280;64247;51.540;5.854;2023-08-12T05:05:12;101389.53;;;24.14;76.44
75036;BME280;64247;51.540;5.854;2023-08-12T05:07:13;101386.78;;;24.14;76.04
75036;BME280;64247;51.540;5.854;2023-08-12T05:09:14;101373.69;;;24.15;76.43
75036;BME280;64247;51.540;5.854;2023-08-12T05:11:16;101380.47;;;24.14;76.00
75036;BME280;64247;51.540;5.854;2023-08-12T05:13:17;101386.00;;;24.14;76.26
75036;BME280;64247;51.540;5.854;2023-08-12T05:15:18;101386.00;;;24.14;76.52
75036;BME280;64247;51.540;5.854;2023-08-12T05:17:19;101395.53;;;24.13;76.27
75036;BME280;64247;51.540;5.854;2023-08-12T05:19:21;101390.78;;;24.13;76.17
75036;BME280;64247;51.540;5.854;2023-08-12T05:21:22;101386.44;;;24.12;76.51
75036;BME280;64247;51.540;5.854;2023-08-12T05:23:23;101378.88;;;24.13;76.04
75036;BME280;64247;51.540;5.854;2023-08-12T05:25:24;101373.34;;;24.13;76.09
75036;BME280;64247;51.540;5.854;2023-08-12T05:27:25;101376.09;;;24.13;76.36
75036;BME280;64247;51.540;5.854;2023-08-12T05:29:26;101375.34;;;24.12;76.50
75036;BME280;64247;51.540;5.854;2023-08-12T05:31:27;101368.59;;;24.13;76.41
75036;BME280;64247;51.540;5.854;2023-08-12T05:33:28;101358.69;;;24.12;76.65
75036;BME280;64247;51.540;5.854;2023-08-12T05:35:32;101351.16;;;24.13;76.30
75036;BME280;64247;51.540;5.854;2023-08-12T05:37:36;101352.34;;;24.12;76.54
75036;BME280;64247;51.540;5.854;2023-08-12T05:39:37;101341.25;;;24.12;76.35
75036;BME280;64247;51.540;5.854;2023-08-12T05:41:38;101337.72;;;24.11;76.30
75036;BME280;64247;51.540;5.854;2023-08-12T05:43:39;101348.81;;;24.11;76.59
75036;BME280;64247;51.540;5.854;2023-08-12T05:45:40;101348.81;;;24.11;76.70
75036;BME280;64247;51.540;5.854;2023-08-12T05:47:41;101352.34;;;24.12;76.56
75036;BME280;64247;51.540;5.854;2023-08-12T05:49:42;101355.13;;;24.12;76.38
75036;BME280;64247;51.540;5.854;2023-08-12T05:51:43;101353.16;;;24.12;76.52
75036;BME280;64247;51.540;5.854;2023-08-12T05:53:44;101361.47;;;24.12;76.29
75036;BME280;64247;51.540;5.854;2023-08-12T05:55:45;101352.34;;;24.12;76.24
75036;BME280;64247;51.540;5.854;2023-08-12T05:57:46;101344.81;;;24.12;76.45
75036;BME280;64247;51.540;5.854;2023-08-12T05:59:47;101341.25;;;24.12;76.27
75036;BME280;64247;51.540;5.854;2023-08-12T06:01:48;101342.06;;;24.12;76.60
75036;BME280;64247;51.540;5.854;2023-08-12T06:03:49;101351.56;;;24.11;76.23
75036;BME280;64247;51.540;5.854;2023-08-12T06:05:50;101348.81;;;24.11;76.52
75036;BME280;64247;51.540;5.854;2023-08-12T06:07:50;101352.34;;;24.12;76.66
75036;BME280;64247;51.540;5.854;2023-08-12T06:09:51;101341.25;;;24.12;76.36
75036;BME280;64247;51.540;5.854;2023-08-12T06:11:52;101343.25;;;24.11;76.42
75036;BME280;64247;51.540;5.854;2023-08-12T06:13:53;101348.81;;;24.11;76.61
75036;BME280;64247;51.540;5.854;2023-08-12T06:15:54;101345.22;;;24.11;76.35
75036;BME280;64247;51.540;5.854;2023-08-12T06:17:55;101347.59;;;24.12;76.50
75036;BME280;64247;51.540;5.854;2023-08-12T06:19:56;101334.94;;;24.11;76.42
75036;BME280;64247;51.540;5.854;2023-08-12T06:21:57;101339.28;;;24.12;76.78
75036;BME280;64247;51.540;5.854;2023-08-12T06:23:58;101335.72;;;24.12;76.72
75036;BME280;64247;51.540;5.854;2023-08-12T06:25:58;101334.50;;;24.13;76.30
75036;BME280;64247;51.540;5.854;2023-08-12T06:27:59;101323.41;;;24.13;76.38
75036;BME280;64247;51.540;5.854;2023-08-12T06:30:02;101315.09;;;24.13;76.51
75036;BME280;64247;51.540;5.854;2023-08-12T06:32:03;101322.97;;;24.14;76.71
75036;BME280;64247;51.540;5.854;2023-08-12T06:34:04;101321.00;;;24.15;76.62
75036;BME280;64247;51.540;5.854;2023-08-12T06:36:05;101331.66;;;24.16;76.50
75036;BME280;64247;51.540;5.854;2023-08-12T06:38:07;101326.56;;;24.15;76.46
75036;BME280;64247;51.540;5.854;2023-08-12T06:40:10;101314.66;;;24.14;76.31
75036;BME280;64247;51.540;5.854;2023-08-12T06:42:11;101315.03;;;24.16;76.44
75036;BME280;64247;51.540;5.854;2023-08-12T06:44:13;101318.22;;;24.15;76.46
75036;BME280;64247;51.540;5.854;2023-08-12T06:46:14;101311.13;;;24.14;76.57
75036;BME280;64247;51.540;5.854;2023-08-12T06:48:15;101301.59;;;24.15;76.46
75036;BME280;64247;51.540;5.854;2023-08-12T06:50:16;101310.69;;;24.15;76.63
75036;BME280;64247;51.540;5.854;2023-08-12T06:52:17;101309.91;;;24.15;76.53
75036;BME280;64247;51.540;5.854;2023-08-12T06:54:18;101304.38;;;24.15;76.63
75036;BME280;64247;51.540;5.854;2023-08-12T06:56:19;101313.47;;;24.15;76.37
75036;BME280;64247;51.540;5.854;2023-08-12T06:58:20;101307.13;;;24.15;76.76
75036;BME280;64247;51.540;5.854;2023-08-12T07:00:21;101310.69;;;24.15;76.40
75036;BME280;64247;51.540;5.854;2023-08-12T07:02:22;101312.69;;;24.15;76.64
75036;BME280;64247;51.540;5.854;2023-08-12T07:04:23;101311.88;;;24.14;76.42
75036;BME280;64247;51.540;5.854;2023-08-12T07:06:24;101306.34;;;24.14;76.28
75036;BME280;64247;51.540;5.854;2023-08-12T07:08:25;101301.59;;;24.15;76.78
75036;BME280;64247;51.540;5.854;2023-08-12T07:10:27;101292.47;;;24.14;76.50
75036;BME280;64247;51.540;5.854;2023-08-12T07:12:28;101296.03;;;24.15;76.53
75036;BME280;64247;51.540;5.854;2023-08-12T07:14:29;101290.06;;;24.16;76.12
75036;BME280;64247;51.540;5.854;2023-08-12T07:16:30;101291.63;;;24.17;76.41
75036;BME280;64247;51.540;5.854;2023-08-12T07:18:31;101286.09;;;24.17;76.62
75036;BME280;64247;51.540;5.854;2023-08-12T07:20:32;101295.97;;;24.18;76.49
75036;BME280;64247;51.540;5.854;2023-08-12T07:22:33;101285.31;;;24.17;76.60
75036;BME280;64247;51.540;5.854;2023-08-12T07:24:34;101288.44;;;24.19;76.53
75036;BME280;64247;51.540;5.854;2023-08-12T07:26:35;101287.66;;;24.18;76.18
75036;BME280;64247;51.540;5.854;2023-08-12T07:28:36;101287.66;;;24.18;76.36
75036;BME280;64247;51.540;5.854;2023-08-12T07:30:37;101292.00;;;24.20;76.24
75036;BME280;64247;51.540;5.854;2023-08-12T07:32:38;101292.78;;;24.20;76.42
75036;BME280;64247;51.540;5.854;2023-08-12T07:34:39;101292.78;;;24.20;76.27
75036;BME280;64247;51.540;5.854;2023-08-12T07:36:40;101287.22;;;24.20;76.19
75036;BME280;64247;51.540;5.854;2023-08-12T07:38:41;101286.44;;;24.20;76.21
75036;BME280;64247;51.540;5.854;2023-08-12T07:40:42;101288.03;;;24.21;76.50
75036;BME280;64247;51.540;5.854;2023-08-12T07:42:43;101276.94;;;24.21;76.37
75036;BME280;64247;51.540;5.854;2023-08-12T07:44:44;101282.03;;;24.22;75.97
75036;BME280;64247;51.540;5.854;2023-08-12T07:46:45;101282.47;;;24.21;76.12
75036;BME280;64247;51.540;5.854;2023-08-12T07:48:46;101285.25;;;24.21;76.00
75036;BME280;64247;51.540;5.854;2023-08-12T07:50:47;101279.69;;;24.21;76.58
75036;BME280;64247;51.540;5.854;2023-08-12T07:52:55;101288.03;;;24.21;76.25
75036;BME280;64247;51.540;5.854;2023-08-12T07:54:56;101284.44;;;24.20;76.18
75036;BME280;64247;51.540;5.854;2023-08-12T07:56:57;101275.34;;;24.20;76.60
75036;BME280;64247;51.540;5.854;2023-08-12T07:58:58;101274.16;;;24.21;76.13
75036;BME280;64247;51.540;5.854;2023-08-12T08:00:59;101279.34;;;24.18;76.43
75036;BME280;64247;51.540;5.854;2023-08-12T08:02:59;101273.00;;;24.18;76.21
75036;BME280;64247;51.540;5.854;2023-08-12T08:05:00;101276.56;;;24.18;76.20
75036;BME280;64247;51.540;5.854;2023-08-12T08:07:01;101267.81;;;24.20;76.12
75036;BME280;64247;51.540;5.854;2023-08-12T08:09:02;101265.84;;;24.21;76.35
75036;BME280;64247;51.540;5.854;2023-08-12T08:11:04;101260.63;;;24.23;76.25
75036;BME280;64247;51.540;5.854;2023-08-12T08:13:05;101262.63;;;24.22;76.27
75036;BME280;64247;51.540;5.854;2023-08-12T08:15:06;101261.81;;;24.22;76.16
75036;BME280;64247;51.540;5.854;2023-08-12T08:17:07;101254.75;;;24.21;76.18
75036;BME280;64247;51.540;5.854;2023-08-12T08:19:08;101261.81;;;24.22;76.49
75036;BME280;64247;51.540;5.854;2023-08-12T08:21:10;101270.16;;;24.22;76.21
75036;BME280;64247;51.540;5.854;2023-08-12T08:23:11;101264.19;;;24.23;76.11
75036;BME280;64247;51.540;5.854;2023-08-12T08:25:11;101270.50;;;24.24;76.18
75036;BME280;64247;51.540;5.854;2023-08-12T08:27:12;101265.41;;;24.22;76.49
75036;BME280;64247;51.540;5.854;2023-08-12T08:29:14;101273.72;;;24.22;76.20
75036;BME280;64247;51.540;5.854;2023-08-12T08:31:14;101271.72;;;24.23;76.21
75036;BME280;64247;51.540;5.854;2023-08-12T08:33:15;101272.91;;;24.22;76.38
75036;BME280;64247;51.540;5.854;2023-08-12T08:35:16;101276.50;;;24.22;76.50
75036;BME280;64247;51.540;5.854;2023-08-12T08:37:17;101283.25;;;24.21;76.20
75036;BME280;64247;51.540;5.854;2023-08-12T08:39:18;101274.91;;;24.21;76.18
75036;BME280;64247;51.540;5.854;2023-08-12T08:41:19;101276.50;;;24.22;76.09
75036;BME280;64247;51.540;5.854;2023-08-12T08:43:21;101275.28;;;24.23;76.20
75036;BME280;64247;51.540;5.854;2023-08-12T08:45:24;101268.94;;;24.23;76.48
75036;BME280;64247;51.540;5.854;2023-08-12T08:47:26;101273.28;;;24.24;76.52
75036;BME280;64247;51.540;5.854;2023-08-12T08:49:28;101282.41;;;24.24;76.19
75036;BME280;64247;51.540;5.854;2023-08-12T08:51:31;101283.19;;;24.25;76.22
75036;BME280;64247;51.540;5.854;2023-08-12T08:53:36;101276.41;;;24.26;76.15
75036;BME280;64247;51.540;5.854;2023-08-12T08:55:40;101294.19;;;24.28;76.05
75036;BME280;64247;51.540;5.854;2023-08-12T08:57:43;101295.00;;;24.29;76.13
75036;BME280;64247;51.540;5.854;2023-08-12T08:59:45;101296.97;;;24.28;75.93
75036;BME280;64247;51.540;5.854;2023-08-12T09:01:46;101295.00;;;24.29;76.12
75036;BME280;64247;51.540;5.854;2023-08-12T09:03:52;101293.38;;;24.31;75.92
75036;BME280;64247;51.540;5.854;2023-08-12T09:05:55;101297.72;;;24.32;76.10
75036;BME280;64247;51.540;5.854;2023-08-12T09:07:57;101299.69;;;24.32;75.86
75036;BME280;64247;51.540;5.854;2023-08-12T09:10:00;101304.47;;;24.31;75.85
75036;BME280;64247;51.540;5.854;2023-08-12T09:12:03;101303.66;;;24.31;76.10
75036;BME280;64247;51.540;5.854;2023-08-12T09:14:05;101309.22;;;24.31;75.81
75036;BME280;64247;51.540;5.854;2023-08-12T09:16:07;101306.88;;;24.29;76.20
75036;BME280;64247;51.540;5.854;2023-08-12T09:18:08;101315.19;;;24.29;76.28
75036;BME280;64247;51.540;5.854;2023-08-12T09:20:10;101310.84;;;24.28;76.37
75036;BME280;64247;51.540;5.854;2023-08-12T09:22:13;101309.28;;;24.27;76.25
75036;BME280;64247;51.540;5.854;2023-08-12T09:24:14;101305.31;;;24.28;76.41
75036;BME280;64247;51.540;5.854;2023-08-12T09:26:17;101307.31;;;24.28;76.26
75036;BME280;64247;51.540;5.854;2023-08-12T09:28:20;101305.31;;;24.28;76.42
75036;BME280;64247;51.540;5.854;2023-08-12T09:30:20;101318.41;;;24.28;76.35
75036;BME280;64247;51.540;5.854;2023-08-12T09:32:21;101320.75;;;24.29;76.10
75036;BME280;64247;51.540;5.854;2023-08-12T09:34:23;101321.50;;;24.30;75.95
75036;BME280;64247;51.540;5.854;2023-08-12T09:36:27;101313.56;;;24.32;75.92
75036;BME280;64247;51.540;5.854;2023-08-12T09:38:30;101318.66;;;24.33;76.26
75036;BME280;64247;51.540;5.854;2023-08-12T09:40:34;101321.03;;;24.35;75.88
75036;BME280;64247;51.540;5.854;2023-08-12T09:42:35;101320.66;;;24.33;75.81
75036;BME280;64247;51.540;5.854;2023-08-12T09:44:37;101325.03;;;24.34;75.89
75036;BME280;64247;51.540;5.854;2023-08-12T09:46:39;101332.13;;;24.35;76.17
75036;BME280;64247;51.540;5.854;2023-08-12T09:48:40;101324.22;;;24.33;76.26
75036;BME280;64247;51.540;5.854;2023-08-12T09:50:40;101329.34;;;24.35;76.10
75036;BME280;64247;51.540;5.854;2023-08-12T09:52:41;101330.50;;;24.38;76.05
75036;BME280;64247;51.540;5.854;2023-08-12T09:54:44;101323.75;;;24.39;75.67
75036;BME280;64247;51.540;5.854;2023-08-12T09:56:47;101318.53;;;24.41;75.78
75036;BME280;64247;51.540;5.854;2023-08-12T09:58:50;101319.69;;;24.43;75.61
75036;BME280;64247;51.540;5.854;2023-08-12T10:00:52;101318.06;;;24.46;75.28
75036;BME280;64247;51.540;5.854;2023-08-12T10:02:53;101325.19;;;24.47;75.29
75036;BME280;64247;51.540;5.854;2023-08-12T10:04:56;101326.38;;;24.46;75.44
75036;BME280;64247;51.540;5.854;2023-08-12T10:06:59;101326.75;;;24.48;75.30
75036;BME280;64247;51.540;5.854;2023-08-12T10:09:01;101327.88;;;24.50;75.35
75036;BME280;64247;51.540;5.854;2023-08-12T10:11:02;101325.88;;;24.51;75.25
75036;BME280;64247;51.540;5.854;2023-08-12T10:13:04;101331.44;;;24.51;75.57
75036;BME280;64247;51.540;5.854;2023-08-12T10:15:09;101325.81;;;24.55;74.98
75036;BME280;64247;51.540;5.854;2023-08-12T10:17:11;101328.06;;;24.60;75.11
75036;BME280;64247;51.540;5.854;2023-08-12T10:19:15;101331.66;;;24.60;74.68
75036;BME280;64247;51.540;5.854;2023-08-12T10:21:18;101337.56;;;24.62;75.17
75036;BME280;64247;51.540;5.854;2023-08-12T10:23:19;101341.47;;;24.65;75.09
75036;BME280;64247;51.540;5.854;2023-08-12T10:25:20;101340.66;;;24.64;74.77
75036;BME280;64247;51.540;5.854;2023-08-12T10:27:25;101343.03;;;24.66;74.72
75036;BME280;64247;51.540;5.854;2023-08-12T10:29:27;101336.66;;;24.69;74.79
75036;BME280;64247;51.540;5.854;2023-08-12T10:31:31;101347.75;;;24.69;74.51
75036;BME280;64247;51.540;5.854;2023-08-12T10:33:38;101345.41;;;24.68;74.35
75036;BME280;64247;51.540;5.854;2023-08-12T10:35:41;101342.25;;;24.65;74.62
75036;BME280;64247;51.540;5.854;2023-08-12T10:37:48;101346.22;;;24.64;75.01
75036;BME280;64247;51.540;5.854;2023-08-12T10:39:54;101341.09;;;24.63;74.72